sensor_id;sensor_type;location;lat;lon;timestamp;P1;durP1;ratioP1;P2;durP2;ratioP2
77866;SDS011;67271;59.120;37.970;2023-05-15T00:00:09;11.48;;;5.35;;
77866;SDS011;67271;59.120;37.970;2023-05-15T00:02:48;8.45;;;4.47;;
77866;SDS011;67271;59.120;37.970;2023-05-15T00:05:13;6.00;;;4.22;;
77866;SDS011;67271;59.120;37.970;2023-05-15T00:07:40;17.65;;;4.18;;
77866;SDS011;67271;59.120;37.970;2023-05-15T00:10:06;10.35;;;4.47;;
77866;SDS011;67271;59.120;37.970;2023-05-15T00:12:33;8.35;;;3.95;;
77866;SDS011;67271;59.120;37.970;2023-05-15T00:14:59;10.60;;;3.90;;
77866;SDS011;67271;59.120;37.970;2023-05-15T00:17:25;5.93;;;2.78;;
77866;SDS011;67271;59.120;37.970;2023-05-15T00:19:50;6.32;;;3.50;;
77866;SDS011;67271;59.120;37.970;2023-05-15T00:22:22;10.02;;;3.67;;
77866;SDS011;67271;59.120;37.970;2023-05-15T00:24:48;9.32;;;3.60;;
77866;SDS011;67271;59.120;37.970;2023-05-15T00:27:14;5.95;;;3.22;;
77866;SDS011;67271;59.120;37.970;2023-05-15T00:29:40;5.97;;;3.10;;
77866;SDS011;67271;59.120;37.970;2023-05-15T00:32:06;6.85;;;3.47;;
77866;SDS011;67271;59.120;37.970;2023-05-15T00:34:32;4.97;;;3.25;;
77866;SDS011;67271;59.120;37.970;2023-05-15T00:36:58;5.55;;;3.33;;
77866;SDS011;67271;59.120;37.970;2023-05-15T00:39:24;8.98;;;3.58;;
77866;SDS011;67271;59.120;37.970;2023-05-15T00:41:50;6.45;;;3.65;;
77866;SDS011;67271;59.120;37.970;2023-05-15T00:44:16;7.50;;;3.35;;
77866;SDS011;67271;59.120;37.970;2023-05-15T00:46:47;5.47;;;3.03;;
77866;SDS011;67271;59.120;37.970;2023-05-15T00:49:14;6.35;;;3.20;;
77866;SDS011;67271;59.120;37.970;2023-05-15T00:51:40;5.88;;;2.83;;
77866;SDS011;67271;59.120;37.970;2023-05-15T00:54:07;5.53;;;3.35;;
77866;SDS011;67271;59.120;37.970;2023-05-15T00:56:33;4.85;;;2.85;;
77866;SDS011;67271;59.120;37.970;2023-05-15T00:59:01;6.97;;;3.60;;
77866;SDS011;67271;59.120;37.970;2023-05-15T01:01:28;9.30;;;3.20;;
77866;SDS011;67271;59.120;37.970;2023-05-15T01:03:58;7.63;;;3.58;;
77866;SDS011;67271;59.120;37.970;2023-05-15T01:06:28;9.55;;;3.50;;
77866;SDS011;67271;59.120;37.970;2023-05-15T01:08:55;6.10;;;3.45;;
77866;SDS011;67271;59.120;37.970;2023-05-15T01:11:24;7.47;;;3.28;;
77866;SDS011;67271;59.120;37.970;2023-05-15T01:13:52;6.07;;;3.50;;
77866;SDS011;67271;59.120;37.970;2023-05-15T01:16:19;5.00;;;3.17;;
77866;SDS011;67271;59.120;37.970;2023-05-15T01:18:46;5.93;;;3.10;;
77866;SDS011;67271;59.120;37.970;2023-05-15T01:21:25;5.50;;;2.75;;
77866;SDS011;67271;59.120;37.970;2023-05-15T01:32:15;4.60;;;3.20;;
77866;SDS011;67271;59.120;37.970;2023-05-15T01:35:05;3.53;;;2.55;;
77866;SDS011;67271;59.120;37.970;2023-05-15T01:37:39;6.05;;;3.10;;
77866;SDS011;67271;59.120;37.970;2023-05-15T01:40:15;7.22;;;3.60;;
77866;SDS011;67271;59.120;37.970;2023-05-15T01:42:48;4.47;;;2.65;;
77866;SDS011;67271;59.120;37.970;2023-05-15T01:45:18;6.95;;;2.47;;
77866;SDS011;67271;59.120;37.970;2023-05-15T01:47:47;4.88;;;3.05;;
77866;SDS011;67271;59.120;37.970;2023-05-15T01:50:14;6.35;;;3.45;;
77866;SDS011;67271;59.120;37.970;2023-05-15T01:52:47;8.98;;;3.05;;
77866;SDS011;67271;59.120;37.970;2023-05-15T01:55:15;4.80;;;3.03;;
77866;SDS011;67271;59.120;37.970;2023-05-15T01:57:42;6.53;;;3.25;;
77866;SDS011;67271;59.120;37.970;2023-05-15T02:00:12;6.03;;;2.85;;
77866;SDS011;67271;59.120;37.970;2023-05-15T02:05:09;4.30;;;2.95;;
77866;SDS011;67271;59.120;37.970;2023-05-15T02:07:35;6.63;;;3.97;;
77866;SDS011;67271;59.120;37.970;2023-05-15T02:10:02;6.00;;;3.88;;
77866;SDS011;67271;59.120;37.970;2023-05-15T02:12:30;7.97;;;3.58;;
77866;SDS011;67271;59.120;37.970;2023-05-15T02:14:56;13.07;;;4.78;;
77866;SDS011;67271;59.120;37.970;2023-05-15T02:17:23;23.17;;;8.18;;
77866;SDS011;67271;59.120;37.970;2023-05-15T02:19:49;34.92;;;11.23;;
77866;SDS011;67271;59.120;37.970;2023-05-15T02:22:16;31.92;;;10.07;;
77866;SDS011;67271;59.120;37.970;2023-05-15T02:24:41;21.67;;;8.65;;
77866;SDS011;67271;59.120;37.970;2023-05-15T02:27:13;11.30;;;5.53;;
77866;SDS011;67271;59.120;37.970;2023-05-15T02:37:45;6.85;;;3.50;;
77866;SDS011;67271;59.120;37.970;2023-05-15T02:40:13;16.23;;;6.28;;
77866;SDS011;67271;59.120;37.970;2023-05-15T02:42:40;7.38;;;3.90;;
77866;SDS011;67271;59.120;37.970;2023-05-15T02:45:08;7.90;;;4.13;;
77866;SDS011;67271;59.120;37.970;2023-05-15T02:47:35;7.75;;;3.63;;
77866;SDS011;67271;59.120;37.970;2023-05-15T02:50:01;7.88;;;3.92;;
77866;SDS011;67271;59.120;37.970;2023-05-15T02:52:32;8.30;;;3.95;;
77866;SDS011;67271;59.120;37.970;2023-05-15T02:54:59;17.50;;;5.90;;
77866;SDS011;67271;59.120;37.970;2023-05-15T02:57:25;11.73;;;4.95;;
77866;SDS011;67271;59.120;37.970;2023-05-15T02:59:52;9.50;;;4.80;;
77866;SDS011;67271;59.120;37.970;2023-05-15T03:02:19;12.35;;;5.25;;
77866;SDS011;67271;59.120;37.970;2023-05-15T03:04:45;6.90;;;3.72;;
77866;SDS011;67271;59.120;37.970;2023-05-15T03:07:11;8.07;;;3.63;;
77866;SDS011;67271;59.120;37.970;2023-05-15T03:09:39;7.18;;;4.38;;
77866;SDS011;67271;59.120;37.970;2023-05-15T03:12:05;6.63;;;3.80;;
77866;SDS011;67271;59.120;37.970;2023-05-15T03:14:32;12.65;;;3.97;;
77866;SDS011;67271;59.120;37.970;2023-05-15T03:16:58;9.38;;;3.67;;
77866;SDS011;67271;59.120;37.970;2023-05-15T03:19:25;7.85;;;3.33;;
77866;SDS011;67271;59.120;37.970;2023-05-15T03:21:51;7.18;;;3.95;;
77866;SDS011;67271;59.120;37.970;2023-05-15T03:24:19;8.80;;;5.65;;
77866;SDS011;67271;59.120;37.970;2023-05-15T03:26:45;12.93;;;8.27;;
77866;SDS011;67271;59.120;37.970;2023-05-15T03:29:11;9.57;;;6.82;;
77866;SDS011;67271;59.120;37.970;2023-05-15T03:31:37;11.38;;;5.93;;
77866;SDS011;67271;59.120;37.970;2023-05-15T03:34:03;16.73;;;4.93;;
77866;SDS011;67271;59.120;37.970;2023-05-15T03:36:29;8.02;;;4.05;;
77866;SDS011;67271;59.120;37.970;2023-05-15T03:38:55;9.93;;;4.22;;
77866;SDS011;67271;59.120;37.970;2023-05-15T03:41:21;7.82;;;4.22;;
77866;SDS011;67271;59.120;37.970;2023-05-15T03:43:47;11.18;;;4.28;;
77866;SDS011;67271;59.120;37.970;2023-05-15T03:46:17;8.50;;;3.75;;
77866;SDS011;67271;59.120;37.970;2023-05-15T03:48:42;8.20;;;3.58;;
77866;SDS011;67271;59.120;37.970;2023-05-15T03:51:08;9.10;;;4.00;;
77866;SDS011;67271;59.120;37.970;2023-05-15T03:53:34;9.93;;;4.28;;
77866;SDS011;67271;59.120;37.970;2023-05-15T03:56:00;13.00;;;3.90;;
77866;SDS011;67271;59.120;37.970;2023-05-15T03:58:26;13.35;;;3.97;;
77866;SDS011;67271;59.120;37.970;2023-05-15T04:00:52;7.03;;;3.90;;
77866;SDS011;67271;59.120;37.970;2023-05-15T04:03:18;10.90;;;4.28;;
77866;SDS011;67271;59.120;37.970;2023-05-15T04:05:44;8.45;;;3.95;;
77866;SDS011;67271;59.120;37.970;2023-05-15T04:08:14;8.45;;;4.35;;
77866;SDS011;67271;59.120;37.970;2023-05-15T04:10:40;9.48;;;3.92;;
77866;SDS011;67271;59.120;37.970;2023-05-15T04:13:06;10.02;;;4.47;;
77866;SDS011;67271;59.120;37.970;2023-05-15T04:15:33;8.65;;;4.57;;
77866;SDS011;67271;59.120;37.970;2023-05-15T04:17:59;9.20;;;4.22;;
77866;SDS011;67271;59.120;37.970;2023-05-15T04:20:25;10.68;;;4.28;;
77866;SDS011;67271;59.120;37.970;2023-05-15T04:22:51;7.80;;;4.85;;
77866;SDS011;67271;59.120;37.970;2023-05-15T04:25:17;13.00;;;3.78;;
77866;SDS011;67271;59.120;37.970;2023-05-15T04:27:44;8.23;;;4.40;;
77866;SDS011;67271;59.120;37.970;2023-05-15T04:30:11;6.65;;;3.33;;
77866;SDS011;67271;59.120;37.970;2023-05-15T04:32:38;8.43;;;4.38;;
77866;SDS011;67271;59.120;37.970;2023-05-15T04:35:05;8.93;;;3.88;;
77866;SDS011;67271;59.120;37.970;2023-05-15T04:37:35;14.82;;;4.53;;
77866;SDS011;67271;59.120;37.970;2023-05-15T04:40:01;8.45;;;3.85;;
77866;SDS011;67271;59.120;37.970;2023-05-15T04:42:27;7.13;;;4.00;;
77866;SDS011;67271;59.120;37.970;2023-05-15T04:44:53;6.35;;;3.80;;
77866;SDS011;67271;59.120;37.970;2023-05-15T04:47:19;9.45;;;4.10;;
77866;SDS011;67271;59.120;37.970;2023-05-15T04:49:45;14.18;;;4.18;;
77866;SDS011;67271;59.120;37.970;2023-05-15T04:52:12;7.75;;;3.92;;
77866;SDS011;67271;59.120;37.970;2023-05-15T04:54:38;7.50;;;3.90;;
77866;SDS011;67271;59.120;37.970;2023-05-15T04:57:04;19.40;;;4.78;;
77866;SDS011;67271;59.120;37.970;2023-05-15T04:59:30;9.38;;;3.83;;
77866;SDS011;67271;59.120;37.970;2023-05-15T05:01:56;11.98;;;5.07;;
77866;SDS011;67271;59.120;37.970;2023-05-15T05:04:22;14.85;;;5.55;;
77866;SDS011;67271;59.120;37.970;2023-05-15T05:06:48;12.80;;;6.05;;
77866;SDS011;67271;59.120;37.970;2023-05-15T05:09:14;11.70;;;5.40;;
77866;SDS011;67271;59.120;37.970;2023-05-15T05:11:40;8.55;;;4.50;;
77866;SDS011;67271;59.120;37.970;2023-05-15T05:14:08;12.80;;;4.50;;
77866;SDS011;67271;59.120;37.970;2023-05-15T05:16:38;15.95;;;3.90;;
77866;SDS011;67271;59.120;37.970;2023-05-15T05:19:04;9.13;;;4.22;;
77866;SDS011;67271;59.120;37.970;2023-05-15T05:21:30;8.25;;;4.05;;
77866;SDS011;67271;59.120;37.970;2023-05-15T05:23:57;7.25;;;3.60;;
77866;SDS011;67271;59.120;37.970;2023-05-15T05:26:23;11.50;;;4.55;;
77866;SDS011;67271;59.120;37.970;2023-05-15T05:28:50;7.82;;;3.58;;
77866;SDS011;67271;59.120;37.970;2023-05-15T05:31:16;12.95;;;3.80;;
77866;SDS011;67271;59.120;37.970;2023-05-15T05:33:42;7.28;;;3.60;;
77866;SDS011;67271;59.120;37.970;2023-05-15T05:36:08;9.73;;;3.40;;
77866;SDS011;67271;59.120;37.970;2023-05-15T05:38:35;8.98;;;3.25;;
77866;SDS011;67271;59.120;37.970;2023-05-15T05:41:01;6.05;;;2.97;;
77866;SDS011;67271;59.120;37.970;2023-05-15T05:43:27;5.15;;;2.35;;
77866;SDS011;67271;59.120;37.970;2023-05-15T05:45:54;5.63;;;2.50;;
77866;SDS011;67271;59.120;37.970;2023-05-15T05:48:20;3.97;;;2.47;;
77866;SDS011;67271;59.120;37.970;2023-05-15T05:50:46;7.38;;;2.20;;
77866;SDS011;67271;59.120;37.970;2023-05-15T05:53:12;3.13;;;1.85;;
77866;SDS011;67271;59.120;37.970;2023-05-15T05:55:38;4.38;;;1.95;;
77866;SDS011;67271;59.120;37.970;2023-05-15T05:58:03;5.28;;;2.60;;
77866;SDS011;67271;59.120;37.970;2023-05-15T06:00:29;7.30;;;2.30;;
77866;SDS011;67271;59.120;37.970;2023-05-15T06:02:56;7.18;;;2.45;;
77866;SDS011;67271;59.120;37.970;2023-05-15T06:05:26;7.90;;;2.95;;
77866;SDS011;67271;59.120;37.970;2023-05-15T06:07:52;2.78;;;2.00;;
77866;SDS011;67271;59.120;37.970;2023-05-15T06:10:19;3.50;;;2.15;;
77866;SDS011;67271;59.120;37.970;2023-05-15T06:12:45;5.72;;;2.05;;
77866;SDS011;67271;59.120;37.970;2023-05-15T06:15:11;5.35;;;2.20;;
77866;SDS011;67271;59.120;37.970;2023-05-15T06:17:37;14.18;;;2.42;;
77866;SDS011;67271;59.120;37.970;2023-05-15T06:20:03;10.13;;;2.50;;
77866;SDS011;67271;59.120;37.970;2023-05-15T06:22:37;5.25;;;1.90;;
77866;SDS011;67271;59.120;37.970;2023-05-15T06:25:03;2.33;;;1.55;;
77866;SDS011;67271;59.120;37.970;2023-05-15T06:27:31;2.42;;;1.80;;
77866;SDS011;67271;59.120;37.970;2023-05-15T06:29:58;2.20;;;1.88;;
77866;SDS011;67271;59.120;37.970;2023-05-15T06:32:24;2.63;;;1.88;;
77866;SDS011;67271;59.120;37.970;2023-05-15T06:34:50;4.90;;;2.00;;
77866;SDS011;67271;59.120;37.970;2023-05-15T06:37:16;5.32;;;2.30;;
77866;SDS011;67271;59.120;37.970;2023-05-15T06:39:42;10.15;;;3.08;;
77866;SDS011;67271;59.120;37.970;2023-05-15T06:42:08;6.18;;;2.67;;
77866;SDS011;67271;59.120;37.970;2023-05-15T06:44:34;5.00;;;2.63;;
77866;SDS011;67271;59.120;37.970;2023-05-15T06:47:00;6.72;;;2.50;;
77866;SDS011;67271;59.120;37.970;2023-05-15T06:49:26;4.05;;;2.00;;
77866;SDS011;67271;59.120;37.970;2023-05-15T06:51:52;9.07;;;2.30;;
77866;SDS011;67271;59.120;37.970;2023-05-15T06:54:19;9.43;;;2.75;;
77866;SDS011;67271;59.120;37.970;2023-05-15T06:56:45;5.60;;;2.20;;
77866;SDS011;67271;59.120;37.970;2023-05-15T06:59:11;6.47;;;2.13;;
77866;SDS011;67271;59.120;37.970;2023-05-15T07:01:37;3.67;;;2.35;;
77866;SDS011;67271;59.120;37.970;2023-05-15T07:04:04;6.10;;;2.13;;
77866;SDS011;67271;59.120;37.970;2023-05-15T07:06:30;8.65;;;3.05;;
77866;SDS011;67271;59.120;37.970;2023-05-15T07:08:57;4.15;;;1.98;;
77866;SDS011;67271;59.120;37.970;2023-05-15T07:11:23;1.42;;;1.33;;
77866;SDS011;67271;59.120;37.970;2023-05-15T07:13:50;3.42;;;1.73;;
77866;SDS011;67271;59.120;37.970;2023-05-15T07:16:17;5.38;;;1.75;;
77866;SDS011;67271;59.120;37.970;2023-05-15T07:18:43;3.47;;;1.65;;
77866;SDS011;67271;59.120;37.970;2023-05-15T07:21:08;4.95;;;1.65;;
77866;SDS011;67271;59.120;37.970;2023-05-15T07:23:34;6.50;;;1.70;;
77866;SDS011;67271;59.120;37.970;2023-05-15T07:26:00;4.80;;;1.58;;
77866;SDS011;67271;59.120;37.970;2023-05-15T07:28:26;3.03;;;1.77;;
77866;SDS011;67271;59.120;37.970;2023-05-15T07:30:52;3.88;;;1.85;;
77866;SDS011;67271;59.120;37.970;2023-05-15T07:33:18;3.50;;;2.08;;
77866;SDS011;67271;59.120;37.970;2023-05-15T07:35:44;5.43;;;1.60;;
77866;SDS011;67271;59.120;37.970;2023-05-15T07:38:09;7.15;;;1.80;;
77866;SDS011;67271;59.120;37.970;2023-05-15T07:40:35;4.15;;;1.70;;
77866;SDS011;67271;59.120;37.970;2023-05-15T07:43:01;3.33;;;1.73;;
77866;SDS011;67271;59.120;37.970;2023-05-15T07:45:27;3.90;;;1.75;;
77866;SDS011;67271;59.120;37.970;2023-05-15T07:47:53;3.00;;;1.63;;
77866;SDS011;67271;59.120;37.970;2023-05-15T07:50:19;10.63;;;2.00;;
77866;SDS011;67271;59.120;37.970;2023-05-15T07:52:45;1.60;;;1.35;;
77866;SDS011;67271;59.120;37.970;2023-05-15T07:55:11;2.42;;;1.40;;
77866;SDS011;67271;59.120;37.970;2023-05-15T07:57:37;3.80;;;1.77;;
77866;SDS011;67271;59.120;37.970;2023-05-15T08:00:05;7.18;;;1.90;;
77866;SDS011;67271;59.120;37.970;2023-05-15T08:02:39;3.90;;;1.75;;
77866;SDS011;67271;59.120;37.970;2023-05-15T08:05:06;2.92;;;1.50;;
77866;SDS011;67271;59.120;37.970;2023-05-15T08:07:32;5.65;;;1.75;;
77866;SDS011;67271;59.120;37.970;2023-05-15T08:09:58;2.60;;;1.65;;
77866;SDS011;67271;59.120;37.970;2023-05-15T08:12:24;6.38;;;2.20;;
77866;SDS011;67271;59.120;37.970;2023-05-15T08:14:52;2.22;;;1.52;;
77866;SDS011;67271;59.120;37.970;2023-05-15T08:17:19;2.40;;;2.00;;
77866;SDS011;67271;59.120;37.970;2023-05-15T08:19:45;3.45;;;1.70;;
77866;SDS011;67271;59.120;37.970;2023-05-15T08:22:12;4.55;;;1.95;;
77866;SDS011;67271;59.120;37.970;2023-05-15T08:24:38;2.35;;;1.80;;
77866;SDS011;67271;59.120;37.970;2023-05-15T08:27:05;3.22;;;1.58;;
77866;SDS011;67271;59.120;37.970;2023-05-15T08:29:32;1.70;;;1.50;;
77866;SDS011;67271;59.120;37.970;2023-05-15T08:31:57;3.65;;;1.60;;
77866;SDS011;67271;59.120;37.970;2023-05-15T08:34:23;7.00;;;1.38;;
77866;SDS011;67271;59.120;37.970;2023-05-15T08:36:50;9.80;;;4.82;;
77866;SDS011;67271;59.120;37.970;2023-05-15T08:39:16;4.25;;;1.90;;
77866;SDS011;67271;59.120;37.970;2023-05-15T08:44:32;3.75;;;1.50;;
77866;SDS011;67271;59.120;37.970;2023-05-15T08:46:59;3.33;;;1.73;;
77866;SDS011;67271;59.120;37.970;2023-05-15T08:49:43;1.88;;;1.52;;
77866;SDS011;67271;59.120;37.970;2023-05-15T08:52:15;2.08;;;1.58;;
77866;SDS011;67271;59.120;37.970;2023-05-15T08:54:41;2.97;;;1.60;;
77866;SDS011;67271;59.120;37.970;2023-05-15T08:57:08;3.00;;;1.65;;
77866;SDS011;67271;59.120;37.970;2023-05-15T08:59:35;4.63;;;1.60;;
77866;SDS011;67271;59.120;37.970;2023-05-15T09:02:02;8.50;;;2.00;;
77866;SDS011;67271;59.120;37.970;2023-05-15T09:04:28;2.47;;;1.70;;
77866;SDS011;67271;59.120;37.970;2023-05-15T09:06:54;5.57;;;1.63;;
77866;SDS011;67271;59.120;37.970;2023-05-15T09:11:49;3.42;;;1.60;;
77866;SDS011;67271;59.120;37.970;2023-05-15T09:14:15;1.40;;;1.30;;
77866;SDS011;67271;59.120;37.970;2023-05-15T09:16:41;2.17;;;1.63;;
77866;SDS011;67271;59.120;37.970;2023-05-15T09:19:07;2.80;;;1.50;;
77866;SDS011;67271;59.120;37.970;2023-05-15T09:21:34;2.35;;;1.65;;
77866;SDS011;67271;59.120;37.970;2023-05-15T09:24:19;2.97;;;1.50;;
77866;SDS011;67271;59.120;37.970;2023-05-15T09:27:05;4.45;;;1.48;;
77866;SDS011;67271;59.120;37.970;2023-05-15T09:29:33;3.40;;;1.40;;
77866;SDS011;67271;59.120;37.970;2023-05-15T09:32:03;1.75;;;1.27;;
77866;SDS011;67271;59.120;37.970;2023-05-15T09:34:31;2.67;;;1.90;;
77866;SDS011;67271;59.120;37.970;2023-05-15T09:36:59;4.45;;;2.38;;
77866;SDS011;67271;59.120;37.970;2023-05-15T09:39:26;4.68;;;1.75;;
77866;SDS011;67271;59.120;37.970;2023-05-15T09:41:52;3.45;;;1.50;;
77866;SDS011;67271;59.120;37.970;2023-05-15T09:44:25;6.45;;;2.80;;
77866;SDS011;67271;59.120;37.970;2023-05-15T09:46:51;5.18;;;2.40;;
77866;SDS011;67271;59.120;37.970;2023-05-15T09:49:18;4.32;;;2.08;;
77866;SDS011;67271;59.120;37.970;2023-05-15T09:51:44;4.63;;;1.88;;
77866;SDS011;67271;59.120;37.970;2023-05-15T09:54:18;3.03;;;2.00;;
77866;SDS011;67271;59.120;37.970;2023-05-15T09:56:47;2.55;;;2.03;;
77866;SDS011;67271;59.120;37.970;2023-05-15T09:59:13;1.77;;;1.63;;
77866;SDS011;67271;59.120;37.970;2023-05-15T10:01:41;2.67;;;1.80;;
77866;SDS011;67271;59.120;37.970;2023-05-15T10:04:11;6.68;;;1.75;;
77866;SDS011;67271;59.120;37.970;2023-05-15T10:06:45;2.83;;;1.77;;
77866;SDS011;67271;59.120;37.970;2023-05-15T10:09:12;3.45;;;2.08;;
77866;SDS011;67271;59.120;37.970;2023-05-15T10:11:40;3.97;;;2.40;;
77866;SDS011;67271;59.120;37.970;2023-05-15T10:14:11;4.90;;;2.38;;
77866;SDS011;67271;59.120;37.970;2023-05-15T10:16:38;5.82;;;2.15;;
77866;SDS011;67271;59.120;37.970;2023-05-15T10:19:06;6.85;;;2.10;;
77866;SDS011;67271;59.120;37.970;2023-05-15T10:21:37;9.85;;;2.50;;
77866;SDS011;67271;59.120;37.970;2023-05-15T10:24:04;10.48;;;3.28;;
77866;SDS011;67271;59.120;37.970;2023-05-15T10:26:40;15.55;;;3.15;;
77866;SDS011;67271;59.120;37.970;2023-05-15T10:29:08;4.57;;;2.90;;
77866;SDS011;67271;59.120;37.970;2023-05-15T10:31:38;6.07;;;3.00;;
77866;SDS011;67271;59.120;37.970;2023-05-15T10:34:06;11.73;;;3.35;;
77866;SDS011;67271;59.120;37.970;2023-05-15T10:36:43;9.77;;;3.85;;
77866;SDS011;67271;59.120;37.970;2023-05-15T10:39:10;12.00;;;3.92;;
77866;SDS011;67271;59.120;37.970;2023-05-15T10:41:37;8.40;;;3.45;;
77866;SDS011;67271;59.120;37.970;2023-05-15T10:44:04;9.00;;;4.47;;
77866;SDS011;67271;59.120;37.970;2023-05-15T10:46:31;11.15;;;3.60;;
77866;SDS011;67271;59.120;37.970;2023-05-15T10:48:59;6.18;;;3.42;;
77866;SDS011;67271;59.120;37.970;2023-05-15T10:51:29;15.45;;;3.83;;
77866;SDS011;67271;59.120;37.970;2023-05-15T10:53:58;9.05;;;3.58;;
77866;SDS011;67271;59.120;37.970;2023-05-15T10:56:25;6.13;;;3.40;;
77866;SDS011;67271;59.120;37.970;2023-05-15T10:58:54;9.68;;;3.17;;
77866;SDS011;67271;59.120;37.970;2023-05-15T11:01:30;6.00;;;3.63;;
77866;SDS011;67271;59.120;37.970;2023-05-15T11:06:40;5.85;;;2.83;;
77866;SDS011;67271;59.120;37.970;2023-05-15T11:11:57;5.35;;;2.80;;
77866;SDS011;67271;59.120;37.970;2023-05-15T11:14:28;6.32;;;3.10;;
77866;SDS011;67271;59.120;37.970;2023-05-15T11:16:55;7.93;;;3.03;;
77866;SDS011;67271;59.120;37.970;2023-05-15T11:21:56;10.57;;;2.70;;
77866;SDS011;67271;59.120;37.970;2023-05-15T11:24:32;4.93;;;2.20;;
77866;SDS011;67271;59.120;37.970;2023-05-15T11:27:28;6.30;;;2.35;;
77866;SDS011;67271;59.120;37.970;2023-05-15T11:30:09;3.33;;;2.20;;
77866;SDS011;67271;59.120;37.970;2023-05-15T11:32:53;7.30;;;2.90;;
77866;SDS011;67271;59.120;37.970;2023-05-15T11:38:01;5.50;;;2.50;;
77866;SDS011;67271;59.120;37.970;2023-05-15T11:40:29;4.82;;;2.08;;
77866;SDS011;67271;59.120;37.970;2023-05-15T11:45:49;4.63;;;2.05;;
77866;SDS011;67271;59.120;37.970;2023-05-15T11:48:21;3.55;;;1.85;;
77866;SDS011;67271;59.120;37.970;2023-05-15T11:50:48;4.20;;;1.77;;
77866;SDS011;67271;59.120;37.970;2023-05-15T11:53:18;5.07;;;1.55;;
77866;SDS011;67271;59.120;37.970;2023-05-15T11:55:45;2.45;;;1.63;;
77866;SDS011;67271;59.120;37.970;2023-05-15T11:58:12;4.68;;;1.52;;
77866;SDS011;67271;59.120;37.970;2023-05-15T12:00:43;3.95;;;1.60;;
77866;SDS011;67271;59.120;37.970;2023-05-15T12:03:13;4.60;;;1.92;;
77866;SDS011;67271;59.120;37.970;2023-05-15T12:05:40;7.45;;;2.10;;
77866;SDS011;67271;59.120;37.970;2023-05-15T12:08:10;2.13;;;1.45;;
77866;SDS011;67271;59.120;37.970;2023-05-15T12:10:41;3.80;;;1.58;;
77866;SDS011;67271;59.120;37.970;2023-05-15T12:13:08;4.65;;;1.80;;
77866;SDS011;67271;59.120;37.970;2023-05-15T12:15:36;10.60;;;1.88;;
77866;SDS011;67271;59.120;37.970;2023-05-15T12:18:04;3.50;;;1.80;;
77866;SDS011;67271;59.120;37.970;2023-05-15T12:20:32;7.95;;;2.05;;
77866;SDS011;67271;59.120;37.970;2023-05-15T12:22:59;4.55;;;1.70;;
77866;SDS011;67271;59.120;37.970;2023-05-15T12:25:26;1.60;;;1.40;;
77866;SDS011;67271;59.120;37.970;2023-05-15T12:27:52;1.92;;;1.40;;
77866;SDS011;67271;59.120;37.970;2023-05-15T12:30:18;4.95;;;1.63;;
77866;SDS011;67271;59.120;37.970;2023-05-15T12:32:45;4.32;;;1.70;;
77866;SDS011;67271;59.120;37.970;2023-05-15T12:35:11;6.00;;;1.70;;
77866;SDS011;67271;59.120;37.970;2023-05-15T12:37:37;3.47;;;2.08;;
77866;SDS011;67271;59.120;37.970;2023-05-15T12:40:04;4.22;;;1.80;;
77866;SDS011;67271;59.120;37.970;2023-05-15T12:42:40;3.40;;;1.85;;
77866;SDS011;67271;59.120;37.970;2023-05-15T12:45:16;5.13;;;1.60;;
77866;SDS011;67271;59.120;37.970;2023-05-15T12:47:44;2.78;;;1.67;;
77866;SDS011;67271;59.120;37.970;2023-05-15T12:50:18;5.13;;;1.60;;
77866;SDS011;67271;59.120;37.970;2023-05-15T12:55:22;5.93;;;2.22;;
77866;SDS011;67271;59.120;37.970;2023-05-15T12:57:51;9.77;;;1.85;;
77866;SDS011;67271;59.120;37.970;2023-05-15T13:00:17;6.10;;;1.52;;
77866;SDS011;67271;59.120;37.970;2023-05-15T13:02:47;4.68;;;1.95;;
77866;SDS011;67271;59.120;37.970;2023-05-15T13:05:15;3.30;;;1.50;;
77866;SDS011;67271;59.120;37.970;2023-05-15T13:07:41;3.05;;;1.50;;
77866;SDS011;67271;59.120;37.970;2023-05-15T13:10:08;3.13;;;1.60;;
77866;SDS011;67271;59.120;37.970;2023-05-15T13:12:36;5.47;;;1.63;;
77866;SDS011;67271;59.120;37.970;2023-05-15T13:20:41;2.38;;;1.60;;
77866;SDS011;67271;59.120;37.970;2023-05-15T13:23:12;3.92;;;1.67;;
77866;SDS011;67271;59.120;37.970;2023-05-15T13:25:40;3.60;;;1.45;;
77866;SDS011;67271;59.120;37.970;2023-05-15T13:28:07;4.80;;;2.38;;
77866;SDS011;67271;59.120;37.970;2023-05-15T13:30:35;1.63;;;1.48;;
77866;SDS011;67271;59.120;37.970;2023-05-15T13:33:06;1.83;;;1.48;;
77866;SDS011;67271;59.120;37.970;2023-05-15T13:35:34;2.90;;;1.23;;
77866;SDS011;67271;59.120;37.970;2023-05-15T13:38:00;1.95;;;1.48;;
77866;SDS011;67271;59.120;37.970;2023-05-15T13:40:26;3.20;;;1.40;;
77866;SDS011;67271;59.120;37.970;2023-05-15T13:42:52;5.57;;;1.80;;
77866;SDS011;67271;59.120;37.970;2023-05-15T13:45:18;1.58;;;1.35;;
77866;SDS011;67271;59.120;37.970;2023-05-15T13:47:44;4.88;;;1.70;;
77866;SDS011;67271;59.120;37.970;2023-05-15T13:50:11;2.97;;;1.48;;
77866;SDS011;67271;59.120;37.970;2023-05-15T13:52:40;2.13;;;1.42;;
77866;SDS011;67271;59.120;37.970;2023-05-15T13:55:07;5.20;;;1.85;;
77866;SDS011;67271;59.120;37.970;2023-05-15T13:57:37;2.30;;;1.40;;
77866;SDS011;67271;59.120;37.970;2023-05-15T14:00:06;3.78;;;1.88;;
77866;SDS011;67271;59.120;37.970;2023-05-15T14:02:40;1.52;;;1.42;;
77866;SDS011;67271;59.120;37.970;2023-05-15T14:05:11;4.15;;;1.67;;
77866;SDS011;67271;59.120;37.970;2023-05-15T14:07:39;1.83;;;1.35;;
77866;SDS011;67271;59.120;37.970;2023-05-15T14:10:06;4.35;;;1.50;;
77866;SDS011;67271;59.120;37.970;2023-05-15T14:12:32;6.55;;;1.52;;
77866;SDS011;67271;59.120;37.970;2023-05-15T14:14:59;2.08;;;1.20;;
77866;SDS011;67271;59.120;37.970;2023-05-15T14:17:25;3.92;;;1.73;;
77866;SDS011;67271;59.120;37.970;2023-05-15T14:19:52;5.22;;;1.90;;
77866;SDS011;67271;59.120;37.970;2023-05-15T14:22:18;1.95;;;1.58;;
77866;SDS011;67271;59.120;37.970;2023-05-15T14:24:44;2.78;;;1.60;;
77866;SDS011;67271;59.120;37.970;2023-05-15T14:27:10;4.18;;;1.70;;
77866;SDS011;67271;59.120;37.970;2023-05-15T14:29:35;2.47;;;1.42;;
77866;SDS011;67271;59.120;37.970;2023-05-15T14:32:01;4.93;;;2.17;;
77866;SDS011;67271;59.120;37.970;2023-05-15T14:34:28;6.28;;;1.83;;
77866;SDS011;67271;59.120;37.970;2023-05-15T14:36:54;4.07;;;1.50;;
77866;SDS011;67271;59.120;37.970;2023-05-15T14:39:20;1.98;;;1.30;;
77866;SDS011;67271;59.120;37.970;2023-05-15T14:41:46;2.28;;;1.60;;
77866;SDS011;67271;59.120;37.970;2023-05-15T14:44:12;6.38;;;1.58;;
77866;SDS011;67271;59.120;37.970;2023-05-15T14:46:40;2.40;;;1.50;;
77866;SDS011;67271;59.120;37.970;2023-05-15T14:49:07;4.45;;;1.55;;
77866;SDS011;67271;59.120;37.970;2023-05-15T14:51:33;4.88;;;1.50;;
77866;SDS011;67271;59.120;37.970;2023-05-15T14:53:59;3.25;;;1.40;;
77866;SDS011;67271;59.120;37.970;2023-05-15T14:56:25;14.63;;;1.60;;
77866;SDS011;67271;59.120;37.970;2023-05-15T14:58:51;4.30;;;1.75;;
77866;SDS011;67271;59.120;37.970;2023-05-15T15:01:18;6.68;;;2.03;;
77866;SDS011;67271;59.120;37.970;2023-05-15T15:03:44;4.85;;;1.60;;
77866;SDS011;67271;59.120;37.970;2023-05-15T15:06:10;4.10;;;1.40;;
77866;SDS011;67271;59.120;37.970;2023-05-15T15:08:36;3.60;;;1.50;;
77866;SDS011;67271;59.120;37.970;2023-05-15T15:11:02;3.83;;;1.67;;
77866;SDS011;67271;59.120;37.970;2023-05-15T15:13:28;2.88;;;1.73;;
77866;SDS011;67271;59.120;37.970;2023-05-15T15:15:54;15.98;;;2.10;;
77866;SDS011;67271;59.120;37.970;2023-05-15T15:18:21;1.83;;;1.27;;
77866;SDS011;67271;59.120;37.970;2023-05-15T15:20:47;3.38;;;1.70;;